Time;durP1;ratioP1;P1;durP2;ratioP2;P2;SDS_P1;SDS_P2;PMS_P1;PMS_P2;Temp;Humidity;BMP_temperature;BMP_pressure;BME280_temperature;BME280_humidity;BME280_pressure;Samples;Min_cycle;Max_cycle;Signal;HPM_P1;HPM_P2
2022/12/13 00:00:30;;;;;;;15.48;11.70;;;3.20;99.90;;;;;;5037118;28;20317;-78
2022/12/13 00:03:01;;;;;;;15.23;12.02;;;3.20;99.90;;;;;;5035595;28;20616;-78
2022/12/13 00:05:31;;;;;;;14.52;11.35;;;3.20;99.90;;;;;;5040073;28;20306;-78
2022/12/13 00:08:00;;;;;;;16.73;12.02;;;3.20;99.90;;;;;;5036514;28;20666;-78
2022/12/13 00:10:30;;;;;;;15.77;11.80;;;3.20;99.90;;;;;;5042322;28;20233;-78
2022/12/13 00:12:59;;;;;;;17.98;12.07;;;3.20;99.90;;;;;;5043201;28;20239;-77
2022/12/13 00:15:33;;;;;;;17.30;12.63;;;3.20;99.90;;;;;;5038982;28;20248;-77
2022/12/13 00:18:00;;;;;;;14.20;11.52;;;3.20;99.90;;;;;;5038855;28;20213;-78
2022/12/13 00:20:28;;;;;;;17.80;13.65;;;3.20;99.90;;;;;;5047429;28;20301;-78
2022/12/13 00:22:56;;;;;;;15.80;13.48;;;3.20;99.90;;;;;;5049589;28;20228;-78
2022/12/13 00:25:23;;;;;;;15.98;12.20;;;3.10;99.90;;;;;;5042714;28;20668;-78
2022/12/13 00:27:51;;;;;;;17.20;13.40;;;3.10;99.90;;;;;;5044405;28;20635;-78
2022/12/13 00:30:19;;;;;;;17.13;13.27;;;3.10;99.90;;;;;;5041439;28;20229;-78
2022/12/13 00:32:46;;;;;;;13.77;12.00;;;3.10;99.90;;;;;;5038810;28;20256;-79
2022/12/13 00:35:13;;;;;;;18.60;12.68;;;3.10;99.90;;;;;;5043558;28;20271;-78
2022/12/13 00:37:40;;;;;;;17.75;12.30;;;3.10;99.90;;;;;;5037313;28;20355;-77
2022/12/13 00:40:10;;;;;;;19.60;13.13;;;3.10;99.90;;;;;;5044142;28;20243;-78
2022/12/13 00:42:37;;;;;;;16.70;11.98;;;3.10;99.90;;;;;;5041058;28;20287;-77
2022/12/13 00:45:05;;;;;;;16.27;11.57;;;3.10;99.90;;;;;;5048489;28;20225;-78
2022/12/13 00:47:33;;;;;;;14.60;11.38;;;3.10;99.90;;;;;;5049635;28;20263;-78
2022/12/13 00:50:00;;;;;;;13.43;11.70;;;3.10;99.90;;;;;;5042354;28;20697;-77
2022/12/13 00:52:28;;;;;;;16.25;12.20;;;3.10;99.90;;;;;;5051047;28;20233;-77
2022/12/13 00:54:55;;;;;;;16.92;12.18;;;3.10;99.90;;;;;;5052860;28;20217;-77
2022/12/13 00:57:23;;;;;;;15.32;11.32;;;3.10;99.90;;;;;;5053169;28;20224;-77
2022/12/13 00:59:51;;;;;;;15.45;10.90;;;3.10;99.90;;;;;;5058783;28;20581;-77
2022/12/13 01:02:18;;;;;;;16.35;11.52;;;3.10;99.90;;;;;;5049385;28;20220;-77
2022/12/13 01:04:51;;;;;;;19.15;12.25;;;3.20;99.90;;;;;;5055128;28;20381;-78
2022/12/13 01:07:18;;;;;;;15.43;13.13;;;3.10;99.90;;;;;;5050065;28;20295;-77
2022/12/13 01:09:48;;;;;;;15.20;10.43;;;3.20;99.90;;;;;;5048565;28;20285;-77
2022/12/13 01:12:16;;;;;;;14.02;10.60;;;3.20;99.90;;;;;;5048424;28;20229;-78
2022/12/13 01:14:43;;;;;;;12.32;10.05;;;3.20;99.90;;;;;;5048816;28;20407;-78
2022/12/13 01:17:10;;;;;;;13.52;10.35;;;3.10;99.90;;;;;;5049550;28;20249;-77
2022/12/13 01:19:37;;;;;;;14.73;11.15;;;3.20;99.90;;;;;;5051601;28;20232;-78
2022/12/13 01:22:07;;;;;;;13.13;11.02;;;3.20;99.90;;;;;;5051631;28;20678;-77
2022/12/13 01:24:34;;;;;;;14.50;10.73;;;3.20;99.90;;;;;;5052949;28;20328;-77
2022/12/13 01:27:02;;;;;;;12.70;9.32;;;3.20;99.90;;;;;;5050947;28;20315;-77
2022/12/13 01:29:29;;;;;;;16.02;10.13;;;3.20;99.90;;;;;;5052622;28;20229;-77
2022/12/13 01:31:56;;;;;;;12.15;9.05;;;3.20;99.90;;;;;;5051987;28;20245;-77
2022/12/13 01:34:24;;;;;;;11.45;9.68;;;3.20;99.90;;;;;;5051068;28;20225;-78
2022/12/13 01:36:56;;;;;;;20.00;14.57;;;3.20;99.90;;;;;;5052847;28;20251;-76
2022/12/13 01:39:24;;;;;;;16.13;10.80;;;3.20;99.90;;;;;;5050111;28;20225;-78
2022/12/13 01:41:58;;;;;;;15.98;12.45;;;3.20;99.90;;;;;;5052201;28;20217;-77
2022/12/13 01:44:59;;;;;;;14.38;10.82;;;3.20;99.90;;;;;;5037995;28;20257;-77
2022/12/13 01:47:31;;;;;;;14.45;10.95;;;3.20;99.90;;;;;;5034522;28;20225;-78
2022/12/13 01:50:02;;;;;;;16.13;11.35;;;3.20;99.90;;;;;;5034567;28;20225;-78
2022/12/13 01:52:32;;;;;;;15.57;12.25;;;3.20;99.90;;;;;;5034321;28;20663;-77
2022/12/13 01:55:04;;;;;;;13.07;10.77;;;3.10;99.90;;;;;;5035121;28;20218;-76
2022/12/13 01:57:33;;;;;;;16.45;11.48;;;3.20;99.90;;;;;;5034109;28;20709;-77
2022/12/13 02:00:00;;;;;;;14.52;11.13;;;3.10;99.90;;;;;;5026179;28;20249;-77
2022/12/13 02:02:27;;;;;;;13.57;10.27;;;3.10;99.90;;;;;;5033369;28;20567;-78
2022/12/13 02:05:00;;;;;;;15.10;10.70;;;3.10;99.90;;;;;;5035300;28;20221;-76
2022/12/13 02:07:30;;;;;;;15.10;11.55;;;3.10;99.90;;;;;;5034218;28;20256;-77
2022/12/13 02:10:01;;;;;;;14.15;10.30;;;3.10;99.90;;;;;;5035128;28;20528;-77
2022/12/13 02:12:31;;;;;;;15.18;11.10;;;3.10;99.90;;;;;;5034742;28;20545;-77
2022/12/13 02:14:59;;;;;;;14.50;9.25;;;3.10;99.90;;;;;;5034773;28;20253;-77
2022/12/13 02:17:35;;;;;;;14.95;11.55;;;3.10;99.90;;;;;;5034162;28;20582;-78
2022/12/13 02:20:37;;;;;;;16.08;11.52;;;3.10;99.90;;;;;;5034926;28;20233;-77
2022/12/13 02:23:33;;;;;;;12.25;10.40;;;3.10;99.90;;;;;;5034305;28;20213;-76
2022/12/13 02:26:27;;;;;;;12.57;10.25;;;3.10;99.90;;;;;;5003570;28;20291;-79
2022/12/13 02:29:12;;;;;;;13.25;9.68;;;3.10;99.90;;;;;;5011883;28;20241;-79
2022/12/13 02:31:49;;;;;;;13.10;10.15;;;3.10;99.90;;;;;;5037941;28;20253;-78
2022/12/13 02:34:22;;;;;;;13.57;10.45;;;3.10;99.90;;;;;;5035244;28;20290;-78
2022/12/13 02:37:02;;;;;;;14.70;11.15;;;3.10;99.90;;;;;;5035569;28;20678;-77
2022/12/13 02:39:33;;;;;;;13.75;10.60;;;3.20;99.90;;;;;;5034852;28;20380;-77
2022/12/13 02:42:06;;;;;;;15.27;11.50;;;3.20;99.90;;;;;;5036688;28;20217;-77
2022/12/13 02:44:43;;;;;;;15.23;12.00;;;3.20;99.90;;;;;;5036979;28;20239;-77
2022/12/13 02:47:15;;;;;;;19.85;13.63;;;3.20;99.90;;;;;;5036559;28;20225;-77
2022/12/13 02:49:48;;;;;;;17.88;13.10;;;3.20;99.90;;;;;;5038645;28;20245;-77
2022/12/13 02:52:19;;;;;;;18.20;13.30;;;3.20;99.90;;;;;;5039860;28;20616;-77
2022/12/13 02:54:48;;;;;;;16.92;12.43;;;3.20;99.90;;;;;;5039798;28;20589;-78
2022/12/13 02:57:32;;;;;;;16.48;12.38;;;3.30;99.90;;;;;;5039720;28;20283;-77
2022/12/13 03:00:05;;;;;;;17.15;13.43;;;3.30;99.90;;;;;;5038441;28;20233;-78
2022/12/13 03:02:43;;;;;;;16.90;12.57;;;3.30;99.90;;;;;;5037330;28;20230;-79
2022/12/13 03:08:24;;;;;;;18.55;12.32;;;3.20;99.90;;;;;;5039506;28;20279;-78
2022/12/13 03:11:05;;;;;;;17.13;12.43;;;3.20;99.90;;;;;;5037729;28;20229;-79
2022/12/13 03:13:39;;;;;;;18.02;12.52;;;3.20;99.90;;;;;;5037581;28;20221;-78
2022/12/13 03:16:13;;;;;;;17.35;13.60;;;3.20;99.90;;;;;;5034340;28;20213;-77
2022/12/13 03:18:43;;;;;;;14.15;11.57;;;3.20;99.90;;;;;;5036372;28;20264;-77
2022/12/13 03:21:11;;;;;;;19.27;13.60;;;3.20;99.90;;;;;;5032648;28;20228;-78
2022/12/13 03:23:39;;;;;;;14.77;12.07;;;3.20;99.90;;;;;;5035402;28;20264;-78
2022/12/13 03:26:10;;;;;;;17.67;12.73;;;3.20;99.90;;;;;;5033409;28;20252;-77
2022/12/13 03:28:38;;;;;;;20.02;15.02;;;3.20;99.90;;;;;;5033403;28;20262;-77
2022/12/13 03:31:07;;;;;;;16.98;11.60;;;3.10;99.90;;;;;;5032780;28;20217;-78
2022/12/13 03:33:34;;;;;;;18.70;13.65;;;3.10;99.90;;;;;;5033583;28;20575;-78
2022/12/13 03:36:03;;;;;;;19.38;14.15;;;3.10;99.90;;;;;;5033735;28;20256;-77
2022/12/13 03:38:31;;;;;;;18.63;12.88;;;3.10;99.90;;;;;;5034077;28;20385;-78
2022/12/13 03:41:01;;;;;;;21.42;13.73;;;3.10;99.90;;;;;;5034520;28;20233;-79
2022/12/13 03:43:35;;;;;;;16.45;11.68;;;3.10;99.90;;;;;;5034409;28;20565;-78
2022/12/13 03:46:02;;;;;;;16.52;11.75;;;3.10;99.90;;;;;;5033784;28;20225;-77
2022/12/13 03:48:32;;;;;;;17.15;12.38;;;3.10;99.90;;;;;;5033532;28;20236;-77
2022/12/13 03:50:59;;;;;;;16.35;12.30;;;3.10;99.90;;;;;;5036002;28;20221;-77
2022/12/13 03:53:27;;;;;;;18.58;13.00;;;3.10;99.90;;;;;;5038525;28;20229;-76
2022/12/13 03:55:54;;;;;;;13.60;11.73;;;3.10;99.90;;;;;;5037320;28;20233;-77
2022/12/13 03:58:22;;;;;;;16.88;12.82;;;3.10;99.90;;;;;;5037492;28;20291;-77
2022/12/13 04:00:49;;;;;;;18.20;13.95;;;3.10;99.90;;;;;;5036962;28;20229;-78
2022/12/13 04:03:18;;;;;;;18.00;12.52;;;3.10;99.90;;;;;;5036342;28;20622;-77
2022/12/13 04:05:52;;;;;;;17.77;12.30;;;3.10;99.90;;;;;;5036774;28;20256;-77
2022/12/13 04:08:19;;;;;;;15.50;10.95;;;3.10;99.90;;;;;;5037116;28;20631;-78
2022/12/13 04:10:52;;;;;;;15.45;11.50;;;3.20;99.90;;;;;;5037281;28;20707;-78
2022/12/13 04:13:36;;;;;;;15.25;10.90;;;3.20;99.90;;;;;;5036216;28;20229;-78
2022/12/13 04:16:10;;;;;;;20.63;12.70;;;3.20;99.90;;;;;;5036856;28;20221;-78
2022/12/13 04:18:43;;;;;;;13.93;11.48;;;3.20;99.90;;;;;;5037083;28;20243;-78
2022/12/13 04:21:15;;;;;;;17.30;11.77;;;3.20;99.90;;;;;;5036147;28;20225;-78
2022/12/13 04:23:43;;;;;;;18.70;12.00;;;3.20;99.90;;;;;;5037973;28;20249;-77
2022/12/13 04:26:11;;;;;;;16.40;13.88;;;3.20;99.90;;;;;;5037413;28;20221;-77
2022/12/13 04:28:38;;;;;;;15.27;10.88;;;3.20;99.90;;;;;;5037346;28;20241;-78
2022/12/13 04:31:05;;;;;;;15.73;11.80;;;3.20;99.90;;;;;;5036165;28;20237;-77
2022/12/13 04:33:33;;;;;;;19.13;12.75;;;3.20;99.90;;;;;;5037037;28;20609;-77
2022/12/13 04:36:00;;;;;;;13.45;11.95;;;3.20;99.90;;;;;;5036932;28;20253;-78
2022/12/13 04:38:27;;;;;;;14.60;11.60;;;3.20;99.90;;;;;;5037683;28;20308;-78
2022/12/13 04:40:54;;;;;;;14.43;10.75;;;3.20;99.90;;;;;;5037354;28;20229;-78
2022/12/13 04:43:22;;;;;;;17.65;12.02;;;3.20;99.90;;;;;;5036221;28;20280;-78
2022/12/13 04:45:50;;;;;;;15.65;11.88;;;3.10;99.90;;;;;;5037469;28;20225;-77
2022/12/13 04:48:16;;;;;;;22.85;12.85;;;3.10;99.90;;;;;;5036446;28;20229;-78
2022/12/13 04:50:44;;;;;;;15.82;11.65;;;3.10;99.90;;;;;;5037751;28;20229;-77
2022/12/13 04:53:15;;;;;;;16.38;13.35;;;3.10;99.90;;;;;;5037727;28;20221;-77
2022/12/13 04:55:42;;;;;;;16.38;10.88;;;3.10;99.90;;;;;;5039399;28;20291;-77
2022/12/13 04:58:09;;;;;;;14.70;11.20;;;3.10;99.90;;;;;;5035998;28;20552;-77
2022/12/13 05:00:40;;;;;;;17.27;11.70;;;3.10;99.90;;;;;;5036366;28;20336;-77
2022/12/13 05:03:07;;;;;;;13.63;10.40;;;3.10;99.90;;;;;;5035658;28;20232;-78
2022/12/13 05:05:34;;;;;;;16.48;11.30;;;3.10;99.90;;;;;;5035588;28;20698;-77
2022/12/13 05:08:01;;;;;;;18.58;12.70;;;3.10;99.90;;;;;;5035245;28;20221;-78
2022/12/13 05:10:28;;;;;;;13.98;11.35;;;3.10;99.90;;;;;;5035933;28;20221;-77
2022/12/13 05:12:55;;;;;;;15.07;11.18;;;3.10;99.90;;;;;;5035560;28;20275;-77
2022/12/13 05:15:22;;;;;;;15.40;10.95;;;3.10;99.90;;;;;;5035053;28;20532;-77
2022/12/13 05:17:50;;;;;;;18.58;12.20;;;3.20;99.90;;;;;;5027937;28;20683;-78
2022/12/13 05:20:27;;;;;;;16.48;13.18;;;3.10;99.90;;;;;;5035268;28;20280;-77
2022/12/13 05:22:59;;;;;;;18.52;13.50;;;3.20;99.90;;;;;;5035569;28;20245;-77
2022/12/13 05:25:26;;;;;;;18.15;13.38;;;3.20;99.90;;;;;;5034352;28;20229;-77
2022/12/13 05:27:53;;;;;;;20.95;14.50;;;3.20;99.90;;;;;;5035350;28;20217;-77
2022/12/13 05:30:21;;;;;;;16.67;12.63;;;3.20;99.90;;;;;;5035032;28;20229;-78
2022/12/13 05:32:48;;;;;;;20.05;13.75;;;3.20;99.90;;;;;;5036182;28;20236;-78
2022/12/13 05:35:17;;;;;;;23.15;15.00;;;3.20;99.90;;;;;;5034447;28;20222;-78
2022/12/13 05:37:44;;;;;;;19.52;12.82;;;3.20;99.90;;;;;;5035795;28;20225;-78
2022/12/13 05:40:11;;;;;;;20.20;13.40;;;3.20;99.90;;;;;;5035440;28;20226;-78
2022/12/13 05:42:38;;;;;;;23.48;13.10;;;3.20;99.90;;;;;;5035371;28;20308;-77
2022/12/13 05:45:07;;;;;;;18.58;14.00;;;3.20;99.90;;;;;;5034309;28;20221;-77
2022/12/13 05:47:36;;;;;;;18.50;13.40;;;3.30;99.90;;;;;;5034856;28;20279;-76
2022/12/13 05:50:05;;;;;;;21.90;14.30;;;3.20;99.90;;;;;;5035360;28;20278;-76
2022/12/13 05:52:33;;;;;;;21.52;15.23;;;3.20;99.90;;;;;;5034549;28;20299;-77
2022/12/13 05:55:00;;;;;;;23.80;15.23;;;3.20;99.90;;;;;;5035463;28;20252;-76
2022/12/13 05:57:33;;;;;;;24.88;15.43;;;3.20;99.90;;;;;;5035103;28;20229;-77
2022/12/13 06:00:00;;;;;;;22.00;14.38;;;3.30;99.90;;;;;;5035748;28;20312;-77
2022/12/13 06:02:27;;;;;;;20.77;14.60;;;3.20;99.90;;;;;;5035610;28;20290;-78
2022/12/13 06:04:54;;;;;;;19.48;14.18;;;3.20;99.90;;;;;;5035379;28;20221;-78
2022/12/13 06:07:24;;;;;;;19.77;14.25;;;3.20;99.90;;;;;;5034721;28;20232;-78
2022/12/13 06:10:00;;;;;;;19.20;13.93;;;3.20;99.90;;;;;;5034981;28;20707;-77
2022/12/13 06:12:36;;;;;;;19.70;13.45;;;3.20;99.90;;;;;;5034807;28;20713;-78
2022/12/13 06:15:05;;;;;;;20.42;13.88;;;3.20;99.90;;;;;;5035993;28;20225;-79
2022/12/13 06:17:32;;;;;;;19.77;15.13;;;3.20;99.90;;;;;;5033484;28;20316;-77
2022/12/13 06:20:01;;;;;;;23.55;14.80;;;3.20;99.90;;;;;;5034885;28;20701;-77
2022/12/13 06:22:30;;;;;;;24.52;16.02;;;3.20;99.90;;;;;;5034881;28;20233;-79
2022/12/13 06:25:01;;;;;;;21.85;14.60;;;3.10;99.90;;;;;;5034655;28;20279;-78
2022/12/13 06:27:28;;;;;;;19.83;15.05;;;3.10;99.90;;;;;;5034459;28;20226;-79
2022/12/13 06:29:55;;;;;;;17.58;13.95;;;3.10;99.90;;;;;;5035714;28;20229;-78
2022/12/13 06:32:22;;;;;;;19.15;14.13;;;3.10;99.90;;;;;;5041824;28;20647;-78
2022/12/13 06:34:50;;;;;;;18.83;13.27;;;3.10;99.90;;;;;;5034544;28;20225;-78
2022/12/13 06:37:18;;;;;;;19.33;15.45;;;3.10;99.90;;;;;;5034084;28;20692;-77
2022/12/13 06:39:47;;;;;;;20.85;14.60;;;3.10;99.90;;;;;;5033511;28;20709;-78
2022/12/13 06:42:18;;;;;;;19.83;13.32;;;3.10;99.90;;;;;;5034133;28;20232;-79
2022/12/13 06:44:45;;;;;;;19.77;14.00;;;3.00;99.90;;;;;;5034183;28;20263;-77
2022/12/13 06:47:14;;;;;;;23.40;14.98;;;3.00;99.90;;;;;;5037420;28;20225;-77
2022/12/13 06:49:51;;;;;;;16.45;13.70;;;3.00;99.90;;;;;;5036158;28;20236;-77
2022/12/13 06:52:18;;;;;;;15.63;13.55;;;3.00;99.90;;;;;;5034038;28;20232;-77
2022/12/13 06:54:45;;;;;;;22.88;17.20;;;3.10;99.90;;;;;;5032670;28;20283;-77
2022/12/13 06:57:13;;;;;;;21.17;14.90;;;3.00;99.90;;;;;;5033210;28;20222;-77
2022/12/13 06:59:42;;;;;;;19.80;15.75;;;3.00;99.90;;;;;;5033918;28;20239;-77
2022/12/13 07:02:09;;;;;;;20.77;16.58;;;3.00;99.90;;;;;;5034268;28;20225;-77
2022/12/13 07:04:36;;;;;;;21.02;16.75;;;3.00;99.90;;;;;;5032767;28;20228;-78
2022/12/13 07:07:03;;;;;;;23.00;15.55;;;3.00;99.90;;;;;;5034856;28;20225;-77
2022/12/13 07:09:31;;;;;;;22.85;15.48;;;3.00;99.90;;;;;;5033499;28;20237;-77
2022/12/13 07:12:05;;;;;;;22.13;14.93;;;3.00;99.90;;;;;;5033649;28;20217;-78
2022/12/13 07:14:32;;;;;;;28.85;18.38;;;3.00;99.90;;;;;;5033758;28;20229;-78
2022/12/13 07:17:01;;;;;;;25.73;17.20;;;3.00;99.90;;;;;;5032759;28;20667;-77
2022/12/13 07:19:31;;;;;;;20.05;14.45;;;3.00;99.90;;;;;;5033225;28;20230;-77
2022/12/13 07:22:00;;;;;;;23.67;14.40;;;3.00;99.90;;;;;;5033008;28;20351;-79
2022/12/13 07:24:27;;;;;;;25.10;18.10;;;3.10;99.90;;;;;;5035729;28;20221;-77
2022/12/13 07:26:54;;;;;;;20.58;15.57;;;3.10;99.90;;;;;;5032818;28;20225;-77
2022/12/13 07:29:21;;;;;;;23.73;16.75;;;3.10;99.90;;;;;;5035188;28;20245;-77
2022/12/13 07:31:50;;;;;;;20.70;16.45;;;3.10;99.90;;;;;;5034640;28;20300;-78
2022/12/13 07:34:25;;;;;;;20.20;14.23;;;3.10;99.90;;;;;;5033511;28;20236;-78
2022/12/13 07:36:52;;;;;;;24.13;16.35;;;3.10;99.90;;;;;;5033613;28;20222;-78
2022/12/13 07:39:19;;;;;;;23.00;17.27;;;3.20;99.90;;;;;;5033756;28;20542;-77
2022/12/13 07:41:47;;;;;;;23.65;16.88;;;3.20;99.90;;;;;;5024502;28;20937;-78
2022/12/13 07:44:19;;;;;;;20.58;16.30;;;3.10;99.90;;;;;;5034805;28;20504;-78
2022/12/13 07:46:46;;;;;;;32.67;19.45;;;3.10;99.90;;;;;;5025254;28;20809;-78
2022/12/13 07:49:15;;;;;;;28.08;18.67;;;3.20;99.90;;;;;;5028894;28;20316;-77
2022/12/13 07:51:44;;;;;;;23.65;16.55;;;3.10;99.90;;;;;;5046271;28;20316;-78
2022/12/13 07:54:13;;;;;;;27.63;18.38;;;3.10;99.90;;;;;;5033061;28;20225;-77
2022/12/13 07:56:41;;;;;;;23.75;17.70;;;3.10;99.90;;;;;;5034252;28;20240;-79
2022/12/13 07:59:09;;;;;;;25.08;17.75;;;3.10;99.90;;;;;;5032908;28;20563;-79
2022/12/13 08:01:38;;;;;;;27.58;18.83;;;3.00;99.90;;;;;;5033519;28;20304;-78
2022/12/13 08:04:05;;;;;;;28.60;19.98;;;3.00;99.90;;;;;;5034381;28;20324;-79
2022/12/13 08:06:36;;;;;;;27.65;17.42;;;3.00;99.90;;;;;;5034301;28;20248;-78
2022/12/13 08:09:06;;;;;;;31.27;22.23;;;3.00;99.90;;;;;;5034128;28;20237;-78
2022/12/13 08:11:33;;;;;;;50.15;31.25;;;2.90;99.90;;;;;;5034867;28;20225;-77
2022/12/13 08:14:00;;;;;;;44.60;29.05;;;2.90;99.90;;;;;;5034410;28;20230;-79
2022/12/13 08:16:27;;;;;;;35.25;23.85;;;2.90;99.90;;;;;;5033513;28;20312;-78
2022/12/13 08:18:54;;;;;;;41.30;24.77;;;2.90;99.90;;;;;;5031007;28;20272;-79
2022/12/13 08:21:22;;;;;;;29.38;19.65;;;2.90;99.90;;;;;;5040392;28;20253;-78
2022/12/13 08:23:49;;;;;;;25.92;18.65;;;2.90;99.90;;;;;;5033515;28;20229;-78
2022/12/13 08:26:18;;;;;;;30.10;19.77;;;2.90;99.90;;;;;;5032809;28;20225;-79
2022/12/13 08:28:45;;;;;;;28.63;19.45;;;2.80;99.90;;;;;;5032238;28;20316;-78
2022/12/13 08:31:13;;;;;;;27.23;18.20;;;2.90;99.90;;;;;;5031939;28;20218;-78
2022/12/13 08:33:42;;;;;;;28.15;19.02;;;2.90;99.90;;;;;;5032954;28;20694;-79
2022/12/13 08:36:10;;;;;;;30.80;19.20;;;2.80;99.90;;;;;;5032413;28;20225;-78
2022/12/13 08:38:38;;;;;;;29.27;20.10;;;2.80;99.90;;;;;;5036634;28;20675;-78
2022/12/13 08:41:07;;;;;;;31.77;19.73;;;2.90;99.90;;;;;;5036637;28;20522;-78
2022/12/13 08:43:37;;;;;;;21.98;17.27;;;2.80;99.90;;;;;;5038809;28;20236;-78
2022/12/13 08:46:04;;;;;;;31.65;21.08;;;2.80;99.90;;;;;;5040752;28;20308;-79
2022/12/13 08:48:34;;;;;;;28.42;20.65;;;2.80;99.90;;;;;;5035079;28;20229;-78
2022/12/13 08:51:02;;;;;;;28.33;20.13;;;2.80;99.90;;;;;;5053930;28;20232;-78
2022/12/13 08:53:30;;;;;;;32.90;22.08;;;2.90;99.90;;;;;;5045177;28;20241;-77
2022/12/13 08:56:01;;;;;;;26.33;20.60;;;2.90;99.90;;;;;;5044814;28;20605;-77
2022/12/13 08:58:28;;;;;;;25.65;19.15;;;2.90;99.90;;;;;;5045784;28;20384;-78
2022/12/13 09:00:57;;;;;;;22.35;17.30;;;2.90;99.90;;;;;;5046637;28;20252;-79
2022/12/13 09:03:24;;;;;;;27.00;19.13;;;3.00;99.90;;;;;;5044639;28;20229;-79
2022/12/13 09:05:52;;;;;;;28.98;21.15;;;3.00;99.90;;;;;;5044427;28;20233;-76
2022/12/13 09:08:20;;;;;;;26.67;19.75;;;3.00;99.90;;;;;;5046137;28;20237;-78
2022/12/13 09:10:56;;;;;;;22.15;16.52;;;3.00;99.90;;;;;;5047866;28;20252;-78
2022/12/13 09:13:23;;;;;;;25.13;17.00;;;3.00;99.90;;;;;;5045060;28;20224;-77
2022/12/13 09:15:50;;;;;;;26.05;18.27;;;3.00;99.90;;;;;;5047419;28;20232;-77
2022/12/13 09:18:18;;;;;;;26.40;18.50;;;3.10;99.90;;;;;;5050628;28;20233;-79
2022/12/13 09:20:45;;;;;;;25.73;18.38;;;3.10;99.90;;;;;;5046070;28;20640;-78
2022/12/13 09:23:13;;;;;;;30.55;20.30;;;3.10;99.90;;;;;;5051459;28;20225;-78
2022/12/13 09:25:40;;;;;;;25.27;17.23;;;3.10;99.90;;;;;;5050458;28;20236;-77
2022/12/13 09:28:08;;;;;;;28.83;18.40;;;3.10;99.90;;;;;;5042340;28;20224;-79
2022/12/13 09:30:36;;;;;;;25.20;18.67;;;3.10;99.90;;;;;;5027893;28;20308;-76
2022/12/13 09:33:03;;;;;;;27.75;18.23;;;3.10;99.90;;;;;;5036497;28;20309;-77
2022/12/13 09:35:31;;;;;;;27.30;18.13;;;3.20;99.90;;;;;;5036922;28;20304;-78
2022/12/13 09:37:58;;;;;;;30.05;18.35;;;3.20;99.90;;;;;;5036069;28;20232;-77
2022/12/13 09:40:27;;;;;;;25.10;17.65;;;3.20;99.90;;;;;;5036182;28;20237;-78
2022/12/13 09:42:57;;;;;;;23.77;16.98;;;3.20;99.90;;;;;;5036209;28;20225;-78
2022/12/13 09:45:25;;;;;;;23.10;18.35;;;3.20;99.90;;;;;;5036213;28;20236;-77
2022/12/13 09:47:53;;;;;;;25.73;17.05;;;3.20;99.90;;;;;;5034867;28;20225;-77
2022/12/13 09:50:26;;;;;;;27.88;19.90;;;3.20;99.90;;;;;;5036308;28;20240;-77
2022/12/13 09:52:56;;;;;;;30.35;20.75;;;3.20;99.90;;;;;;5036229;28;20660;-76
2022/12/13 09:55:28;;;;;;;28.67;19.83;;;3.20;99.90;;;;;;5033606;28;20236;-77
2022/12/13 09:57:55;;;;;;;28.40;20.70;;;3.20;99.90;;;;;;5037092;28;20236;-77
2022/12/13 10:00:26;;;;;;;34.42;21.40;;;3.20;99.90;;;;;;5036436;28;20225;-78
2022/12/13 10:02:59;;;;;;;29.92;19.15;;;3.20;99.90;;;;;;5037421;28;20226;-77
2022/12/13 10:05:30;;;;;;;27.17;19.98;;;3.20;99.90;;;;;;5027476;28;20222;-78
2022/12/13 10:08:03;;;;;;;30.80;18.35;;;3.20;99.90;;;;;;5038207;28;20222;-79
2022/12/13 10:10:38;;;;;;;25.95;18.02;;;3.20;99.90;;;;;;5037235;28;20229;-78
2022/12/13 10:13:15;;;;;;;22.83;19.65;;;3.20;99.90;;;;;;5040642;28;20751;-78
2022/12/13 10:15:55;;;;;;;29.25;20.25;;;3.20;99.90;;;;;;5043093;28;20225;-78
2022/12/13 10:18:33;;;;;;;28.25;20.83;;;3.20;99.90;;;;;;5045282;28;20681;-77
2022/12/13 10:21:10;;;;;;;23.63;18.00;;;3.20;99.90;;;;;;5053323;28;20300;-78
2022/12/13 10:23:50;;;;;;;20.77;17.17;;;3.20;99.90;;;;;;5039290;28;20242;-77
2022/12/13 10:26:19;;;;;;;27.48;17.73;;;3.10;99.90;;;;;;5051961;28;20232;-78
2022/12/13 10:28:47;;;;;;;34.28;21.55;;;3.20;99.90;;;;;;5064731;28;20227;-78
2022/12/13 10:31:18;;;;;;;33.20;22.52;;;3.20;99.90;;;;;;5058212;28;20244;-78
2022/12/13 10:33:58;;;;;;;30.13;18.30;;;3.20;99.90;;;;;;5047754;28;20229;-79
2022/12/13 10:36:34;;;;;;;27.98;18.80;;;3.20;99.90;;;;;;5047613;28;20223;-79
2022/12/13 10:39:05;;;;;;;30.27;20.27;;;3.20;99.90;;;;;;5043149;28;20259;-78
2022/12/13 10:41:39;;;;;;;35.22;23.10;;;3.20;99.90;;;;;;5042991;28;20252;-78
2022/12/13 10:44:19;;;;;;;24.92;18.02;;;3.20;99.90;;;;;;5039957;28;20221;-79
2022/12/13 10:47:17;;;;;;;27.13;19.38;;;3.20;99.90;;;;;;5038853;28;20224;-78
2022/12/13 10:49:53;;;;;;;24.77;16.58;;;3.20;99.90;;;;;;5039151;28;20698;-78
2022/12/13 10:52:25;;;;;;;26.85;21.15;;;3.20;99.90;;;;;;5026533;28;20337;-77
2022/12/13 10:54:56;;;;;;;24.67;16.92;;;3.30;99.90;;;;;;5037116;28;20225;-78
2022/12/13 10:57:25;;;;;;;27.67;19.77;;;3.30;99.90;;;;;;5033854;28;20308;-78
2022/12/13 10:59:55;;;;;;;27.45;18.30;;;3.30;99.90;;;;;;5033953;28;20229;-78
2022/12/13 11:02:40;;;;;;;25.13;18.52;;;3.30;99.90;;;;;;5033701;28;20609;-78
2022/12/13 11:05:25;;;;;;;26.85;18.52;;;3.30;99.90;;;;;;5039732;28;20224;-78
2022/12/13 11:07:58;;;;;;;27.67;19.40;;;3.30;99.90;;;;;;5030710;28;20286;-78
2022/12/13 11:10:28;;;;;;;29.50;18.58;;;3.30;99.90;;;;;;5030780;28;20229;-77
2022/12/13 11:13:01;;;;;;;28.02;18.42;;;3.30;99.90;;;;;;5033579;28;20217;-77
2022/12/13 11:15:32;;;;;;;23.48;17.52;;;3.30;99.90;;;;;;5032448;28;20225;-78
2022/12/13 11:18:01;;;;;;;28.60;18.92;;;3.30;99.90;;;;;;5033627;28;20229;-77
2022/12/13 11:20:32;;;;;;;24.08;17.38;;;3.30;99.90;;;;;;5023904;28;20221;-77
2022/12/13 11:23:04;;;;;;;22.63;17.15;;;3.30;99.90;;;;;;5032752;28;20241;-77
2022/12/13 11:25:41;;;;;;;27.75;19.58;;;3.40;99.90;;;;;;5033078;28;20325;-77
2022/12/13 11:28:22;;;;;;;28.27;20.50;;;3.40;99.90;;;;;;5032551;28;20225;-78
2022/12/13 11:30:58;;;;;;;25.33;19.00;;;3.40;99.90;;;;;;5032276;28;20229;-78
2022/12/13 11:33:34;;;;;;;26.38;18.98;;;3.40;99.90;;;;;;5033110;28;20324;-78
2022/12/13 11:36:10;;;;;;;29.70;21.73;;;3.40;99.90;;;;;;5041124;28;20224;-78
2022/12/13 11:38:53;;;;;;;23.25;17.75;;;3.40;99.90;;;;;;5033883;28;20237;-78
2022/12/13 11:41:26;;;;;;;19.83;16.65;;;3.50;99.90;;;;;;5034631;28;20260;-78
2022/12/13 11:43:57;;;;;;;21.30;17.05;;;3.50;99.90;;;;;;5034925;28;20233;-78
2022/12/13 11:46:40;;;;;;;21.95;16.13;;;3.50;99.90;;;;;;5034222;28;20229;-77
2022/12/13 11:49:37;;;;;;;21.65;16.23;;;3.50;99.90;;;;;;5034592;28;20229;-77
2022/12/13 11:52:12;;;;;;;24.13;17.65;;;3.50;99.90;;;;;;5031741;28;20297;-76
2022/12/13 11:54:54;;;;;;;19.42;16.80;;;3.50;99.90;;;;;;5033560;28;20224;-78
2022/12/13 11:57:38;;;;;;;24.58;17.33;;;3.50;99.90;;;;;;5033165;28;20658;-77
2022/12/13 12:00:15;;;;;;;21.98;16.20;;;3.40;99.90;;;;;;5032634;28;20271;-78
2022/12/13 12:02:55;;;;;;;26.08;18.15;;;3.50;99.90;;;;;;5033869;28;20221;-78
2022/12/13 12:05:45;;;;;;;23.45;18.20;;;3.50;99.90;;;;;;5032670;28;20252;-77
2022/12/13 12:08:20;;;;;;;23.35;18.00;;;3.50;99.90;;;;;;5029073;28;20236;-77
2022/12/13 12:10:51;;;;;;;20.83;16.92;;;3.50;99.90;;;;;;5038933;28;20251;-77
2022/12/13 12:13:27;;;;;;;21.10;16.33;;;3.50;99.90;;;;;;5035444;28;20221;-78
2022/12/13 12:16:08;;;;;;;23.83;16.42;;;3.50;99.90;;;;;;5037547;28;20232;-77
2022/12/13 12:18:35;;;;;;;24.58;17.23;;;3.50;99.90;;;;;;5037638;28;20221;-77
2022/12/13 12:21:17;;;;;;;24.13;16.55;;;3.50;99.90;;;;;;5037825;28;20709;-77
2022/12/13 12:24:07;;;;;;;20.05;15.50;;;3.50;99.90;;;;;;5028907;28;20263;-77
2022/12/13 12:26:48;;;;;;;21.20;16.92;;;3.60;99.90;;;;;;5027015;28;20228;-77
2022/12/13 12:29:43;;;;;;;21.92;16.60;;;3.60;99.90;;;;;;5028017;28;20233;-77
2022/12/13 12:32:20;;;;;;;21.02;14.05;;;3.60;99.90;;;;;;5036395;28;20225;-77
2022/12/13 12:34:56;;;;;;;16.35;13.85;;;3.60;99.90;;;;;;5036882;28;20247;-77
2022/12/13 12:37:40;;;;;;;25.00;16.27;;;3.60;99.90;;;;;;5036227;28;20241;-78
2022/12/13 12:40:40;;;;;;;24.15;17.65;;;3.60;99.90;;;;;;5035241;28;20233;-77
2022/12/13 12:43:17;;;;;;;24.65;17.02;;;3.60;99.90;;;;;;5027153;28;20316;-77
2022/12/13 12:46:00;;;;;;;24.00;17.73;;;3.60;99.90;;;;;;5035358;28;20620;-76
2022/12/13 12:48:46;;;;;;;21.83;15.73;;;3.60;99.90;;;;;;5028691;28;20601;-77
2022/12/13 12:51:19;;;;;;;20.52;17.80;;;3.70;99.90;;;;;;5045641;28;20245;-76
2022/12/13 12:53:54;;;;;;;20.08;16.30;;;3.70;99.90;;;;;;5036042;28;20225;-76
2022/12/13 12:56:37;;;;;;;20.88;16.23;;;3.70;99.90;;;;;;5035914;28;20236;-77
2022/12/13 12:59:18;;;;;;;19.98;16.00;;;3.70;99.90;;;;;;5036971;28;20260;-78
2022/12/13 13:01:54;;;;;;;19.67;14.40;;;3.70;99.90;;;;;;5036716;28;20225;-77